createdAt,value
2022-12-13T00:00:22.917Z,-3.61
2022-12-13T00:05:24.747Z,-3.65
2022-12-13T00:10:26.864Z,-3.66
2022-12-13T00:15:28.588Z,-3.67
2022-12-13T00:20:30.406Z,-3.68
2022-12-13T00:25:33.725Z,-3.68
2022-12-13T00:30:35.905Z,-3.66
2022-12-13T00:35:42.131Z,-3.66
2022-12-13T00:40:43.964Z,-3.65
2022-12-13T00:45:45.708Z,-3.67
2022-12-13T00:50:47.482Z,-3.67
2022-12-13T00:55:49.251Z,-3.66
2022-12-13T01:00:50.949Z,-3.66
2022-12-13T01:11:16.207Z,-3.68
2022-12-13T01:16:18.831Z,-3.70
2022-12-13T01:21:22.307Z,-3.69
2022-12-13T01:26:24.183Z,-3.68
2022-12-13T01:31:26.636Z,-3.66
2022-12-13T01:36:28.590Z,-3.67
2022-12-13T01:41:32.443Z,-3.66
2022-12-13T01:46:36.094Z,-3.66
2022-12-13T01:51:55.975Z,-3.66
2022-12-13T01:57:00.847Z,-3.68
2022-12-13T02:02:03.381Z,-3.70
2022-12-13T02:07:06.267Z,-3.69
2022-12-13T02:12:08.580Z,-3.69
2022-12-13T02:17:26.760Z,-3.66
2022-12-13T02:22:56.566Z,-3.68
2022-12-13T02:28:39.531Z,-3.70
2022-12-13T02:34:07.541Z,-3.70
2022-12-13T02:39:29.726Z,-3.74
2022-12-13T02:44:51.314Z,-3.77
2022-12-13T02:49:57.443Z,-3.78
2022-12-13T02:54:59.500Z,-3.79
2022-12-13T03:00:08.432Z,-3.81
2022-12-13T03:05:42.439Z,-3.84
2022-12-13T03:11:08.726Z,-3.86
2022-12-13T03:16:24.271Z,-3.90
2022-12-13T03:21:26.505Z,-3.92
2022-12-13T03:26:28.170Z,-3.95
2022-12-13T03:31:29.892Z,-4.00
2022-12-13T03:36:32.124Z,-4.05
2022-12-13T03:41:33.954Z,-4.05
2022-12-13T03:46:35.818Z,-4.05
2022-12-13T03:51:37.575Z,-4.06
2022-12-13T03:56:39.233Z,-4.04
2022-12-13T04:01:41.096Z,-4.01
2022-12-13T04:06:42.898Z,-4.00
2022-12-13T04:12:03.172Z,-4.03
2022-12-13T04:17:04.723Z,-4.06
2022-12-13T04:22:06.390Z,-4.11
2022-12-13T04:27:08.166Z,-4.15
2022-12-13T04:32:26.463Z,-4.16
2022-12-13T04:37:30.345Z,-4.16
2022-12-13T04:42:32.075Z,-4.15
2022-12-13T04:47:33.740Z,-4.15
2022-12-13T04:52:35.409Z,-4.13
2022-12-13T04:57:37.095Z,-4.12
2022-12-13T05:02:41.582Z,-4.14
2022-12-13T05:07:45.129Z,-4.16
2022-12-13T05:12:46.754Z,-4.20
2022-12-13T05:17:48.456Z,-4.21
2022-12-13T05:22:50.128Z,-4.21
2022-12-13T05:27:57.035Z,-4.21
2022-12-13T05:32:58.950Z,-4.19
2022-12-13T05:38:00.919Z,-4.21
2022-12-13T05:43:02.556Z,-4.23
2022-12-13T05:48:04.362Z,-4.24
2022-12-13T05:53:07.187Z,-4.28
2022-12-13T05:58:13.255Z,-4.35
2022-12-13T06:03:15.427Z,-4.43
2022-12-13T06:08:24.757Z,-4.47
2022-12-13T06:13:32.186Z,-4.49
2022-12-13T06:18:35.462Z,-4.53
2022-12-13T06:23:37.151Z,-4.53
2022-12-13T06:28:38.858Z,-4.49
2022-12-13T06:33:40.554Z,-4.50
2022-12-13T06:38:43.170Z,-4.51
2022-12-13T06:43:47.670Z,-4.52
2022-12-13T06:48:49.945Z,-4.46
2022-12-13T06:53:52.537Z,-4.43
2022-12-13T06:58:54.263Z,-4.43
2022-12-13T07:04:03.798Z,-4.44
2022-12-13T07:09:05.436Z,-4.44
2022-12-13T07:14:07.699Z,-4.39
2022-12-13T07:19:22.623Z,-4.39
2022-12-13T07:24:26.154Z,-4.37
2022-12-13T07:29:27.821Z,-4.35
2022-12-13T07:34:30.508Z,-4.33
2022-12-13T07:39:32.443Z,-4.30
2022-12-13T07:44:34.080Z,-4.30
2022-12-13T07:49:35.833Z,-4.33
2022-12-13T07:54:37.538Z,-4.42
2022-12-13T07:59:39.179Z,-4.48
2022-12-13T08:04:42.981Z,-4.52
2022-12-13T08:09:48.113Z,-4.34
2022-12-13T08:14:55.259Z,-3.73
2022-12-13T08:19:56.897Z,-3.71
2022-12-13T08:24:58.597Z,-3.81
2022-12-13T08:30:00.330Z,-3.78
2022-12-13T08:35:01.997Z,-3.67
2022-12-13T08:40:06.244Z,-3.59
2022-12-13T08:45:08.636Z,-3.46
2022-12-13T08:50:10.226Z,-3.36
2022-12-13T08:55:13.838Z,-3.15
2022-12-13T09:00:18.308Z,-2.97
2022-12-13T09:05:33.658Z,-2.88
2022-12-13T09:10:38.638Z,-2.80
2022-12-13T09:15:46.157Z,-2.76
2022-12-13T09:20:48.311Z,-2.83
2022-12-13T09:26:05.705Z,-2.90
2022-12-13T09:31:09.773Z,-2.88
2022-12-13T09:36:18.016Z,-2.77
2022-12-13T09:41:29.736Z,-2.59
2022-12-13T09:46:44.926Z,-2.59
2022-12-13T09:52:10.146Z,-2.71
2022-12-13T09:57:34.158Z,-2.88
2022-12-13T10:02:44.378Z,-2.89
2022-12-13T10:07:46.327Z,-2.69
2022-12-13T10:12:55.722Z,-2.46
2022-12-13T10:17:59.680Z,-2.12
2022-12-13T10:23:31.514Z,-1.84
2022-12-13T10:28:31.496Z,-1.73
2022-12-13T10:33:41.646Z,-1.45
2022-12-13T10:38:45.945Z,-1.25
2022-12-13T10:44:08.675Z,-1.05
2022-12-13T10:49:19.823Z,-0.98
2022-12-13T10:54:38.705Z,-0.95
2022-12-13T10:59:50.896Z,-0.95
2022-12-13T11:04:52.521Z,-0.90
2022-12-13T11:09:54.256Z,-0.87
2022-12-13T11:15:06.187Z,-0.71
2022-12-13T11:20:19.579Z,-0.56
2022-12-13T11:25:28.604Z,-0.41
2022-12-13T11:31:01.538Z,-0.19
2022-12-13T11:36:32.841Z,-0.19
2022-12-13T11:41:40.389Z,-0.22
2022-12-13T11:46:46.395Z,-0.30
2022-12-13T11:51:58.092Z,-0.46
2022-12-13T11:57:07.992Z,-0.63
2022-12-13T12:02:32.331Z,-0.65
2022-12-13T12:07:58.421Z,-0.58
2022-12-13T12:13:23.445Z,-0.66
2022-12-13T12:18:25.498Z,-0.71
2022-12-13T12:23:58.948Z,-0.75
2022-12-13T12:29:28.774Z,-0.72
2022-12-13T12:35:04.823Z,-0.86
2022-12-13T12:40:18.869Z,-0.79
2022-12-13T12:46:00.179Z,-0.72
2022-12-13T12:51:10.840Z,-0.72
2022-12-13T12:56:19.703Z,-0.80
2022-12-13T13:01:43.704Z,-0.96
2022-12-13T13:06:50.060Z,-1.19
2022-12-13T13:11:57.380Z,-1.26
2022-12-13T13:17:20.617Z,-1.28
2022-12-13T13:22:32.409Z,-1.44
2022-12-13T13:27:42.737Z,-1.57
2022-12-13T13:32:44.408Z,-1.63
2022-12-13T13:37:48.678Z,-1.66
2022-12-13T13:43:05.571Z,-1.74
2022-12-13T13:48:37.028Z,-2.02
2022-12-13T13:54:03.921Z,-2.24
2022-12-13T13:59:38.106Z,-2.39
2022-12-13T14:05:18.398Z,-2.52
2022-12-13T14:10:32.290Z,-2.58
2022-12-13T14:16:12.055Z,-2.63
2022-12-13T14:21:26.586Z,-2.86
2022-12-13T14:27:16.219Z,-3.06
2022-12-13T14:32:31.476Z,-3.34
2022-12-13T14:37:38.489Z,-3.63
2022-12-13T14:42:41.723Z,-3.90
2022-12-13T14:47:50.359Z,-4.16
2022-12-13T14:52:53.297Z,-4.34
2022-12-13T14:57:57.532Z,-4.54
2022-12-13T15:03:01.446Z,-4.74
2022-12-13T15:08:11.003Z,-4.82
2022-12-13T15:13:22.955Z,-4.82
2022-12-13T15:18:25.527Z,-4.80
2022-12-13T15:23:49.668Z,-4.82
2022-12-13T15:29:14.730Z,-4.87
2022-12-13T15:34:37.605Z,-4.96
2022-12-13T15:39:48.097Z,-5.11
2022-12-13T15:44:54.943Z,-5.20
2022-12-13T15:49:59.361Z,-5.26
2022-12-13T15:55:06.774Z,-5.29
2022-12-13T16:00:30.842Z,-5.26
2022-12-13T16:05:37.215Z,-5.19
2022-12-13T16:10:39.015Z,-5.16
2022-12-13T16:16:26.968Z,-5.13
2022-12-13T16:21:30.191Z,-5.09
2022-12-13T16:26:34.132Z,-5.05
2022-12-13T16:31:36.243Z,-5.02
2022-12-13T16:36:38.662Z,-5.02
2022-12-13T16:41:45.837Z,-5.03
2022-12-13T16:47:16.835Z,-5.05
2022-12-13T16:52:09.287Z,-5.03
2022-12-13T16:57:11.067Z,-5.04
2022-12-13T17:02:17.433Z,-5.19
2022-12-13T17:07:19.260Z,-5.25
2022-12-13T17:12:21.108Z,-5.38
2022-12-13T17:17:22.954Z,-5.52
2022-12-13T17:22:24.720Z,-5.67
2022-12-13T17:27:26.667Z,-5.80
2022-12-13T17:32:29.572Z,-5.94
2022-12-13T17:37:32.304Z,-6.10
2022-12-13T17:42:34.983Z,-6.29
2022-12-13T17:47:38.729Z,-6.49
2022-12-13T17:52:40.648Z,-6.62
2022-12-13T17:57:42.324Z,-6.77
2022-12-13T18:02:55.328Z,-6.88
2022-12-13T18:07:58.126Z,-6.98
2022-12-13T18:13:00.475Z,-7.04
2022-12-13T18:18:12.488Z,-7.07
2022-12-13T18:23:15.963Z,-7.07
2022-12-13T18:28:18.554Z,-7.09
2022-12-13T18:33:20.576Z,-7.14
2022-12-13T18:38:24.389Z,-7.16
2022-12-13T18:43:26.629Z,-7.21
2022-12-13T18:48:32.313Z,-7.27
2022-12-13T18:53:35.402Z,-7.33
2022-12-13T18:58:39.783Z,-7.38
2022-12-13T19:03:47.470Z,-7.45
2022-12-13T19:08:51.757Z,-7.54
2022-12-13T19:13:54.013Z,-7.66
2022-12-13T19:18:57.481Z,-7.81
2022-12-13T19:24:01.312Z,-7.95
2022-12-13T19:29:03.742Z,-8.09
2022-12-13T19:34:05.791Z,-8.20
2022-12-13T19:39:07.807Z,-8.31
2022-12-13T19:44:10.113Z,-8.37
2022-12-13T19:49:13.813Z,-8.39
2022-12-13T19:54:16.070Z,-8.39
2022-12-13T19:59:18.121Z,-8.44
2022-12-13T20:04:20.535Z,-8.56
2022-12-13T20:09:22.630Z,-8.79
2022-12-13T20:14:25.601Z,-9.00
2022-12-13T20:19:28.027Z,-9.14
2022-12-13T20:24:30.012Z,-9.25
2022-12-13T20:29:32.573Z,-9.34
2022-12-13T20:34:35.012Z,-9.38
2022-12-13T20:39:37.048Z,-9.42
2022-12-13T20:44:39.066Z,-9.50
2022-12-13T20:49:41.076Z,-9.54
2022-12-13T20:54:43.176Z,-9.56
2022-12-13T20:59:44.945Z,-9.55
2022-12-13T21:04:46.711Z,-9.46
2022-12-13T21:09:48.471Z,-9.28
2022-12-13T21:14:50.246Z,-9.12
2022-12-13T21:19:52.115Z,-9.07
2022-12-13T21:24:55.389Z,-8.94
2022-12-13T21:29:57.186Z,-8.75
2022-12-13T21:34:59.005Z,-8.53
2022-12-13T21:40:00.880Z,-8.36
2022-12-13T21:45:02.795Z,-8.23
2022-12-13T21:50:04.944Z,-8.27
2022-12-13T21:55:37.870Z,-8.34
2022-12-13T22:00:30.269Z,-8.44
2022-12-13T22:05:32.134Z,-8.52
2022-12-13T22:10:33.922Z,-8.62
2022-12-13T22:15:35.725Z,-8.72
2022-12-13T22:20:37.669Z,-8.84
2022-12-13T22:25:39.522Z,-8.99
2022-12-13T22:30:41.634Z,-9.05
2022-12-13T22:35:43.430Z,-9.10
2022-12-13T22:40:45.263Z,-9.16
2022-12-13T22:45:47.105Z,-9.22
2022-12-13T22:50:48.938Z,-9.31
2022-12-13T22:55:51.236Z,-9.41
2022-12-13T23:00:53.136Z,-9.53
2022-12-13T23:05:54.949Z,-9.64
2022-12-13T23:11:18.236Z,-9.71
2022-12-13T23:16:21.982Z,-9.67
2022-12-13T23:21:25.159Z,-9.54
2022-12-13T23:26:29.812Z,-9.37
2022-12-13T23:31:36.244Z,-9.24
2022-12-13T23:36:38.179Z,-9.12
2022-12-13T23:41:40.071Z,-9.09
2022-12-13T23:46:42.125Z,-9.12
2022-12-13T23:51:50.633Z,-9.21
2022-12-13T23:56:52.468Z,-9.40
